Blockton, Iowa
Current Conditions -  °F | °C
As of 2:35 PM on Saturday 20 Dec 2014 (Local Time) from KCSQ Reporting Station
Haze Haze  
Wind Chill: 26°   Ceiling: 700
Heat Index: 34°   Visibility: 3mi
Dew Point: 34°   Wind: 10mph
Humidity: 100%   Direction: 180°S
Pressure: 30.08"   Gusts: NA
Location:  40.62°N, 94.48°W
Report Text: KCSQ 202035Z AUTO 18009KT 3SM BR OVC007 01/01 A3008 RMK AO2
Loading
Personal Weather Stations






























Interactive Weather Map New forecast layout! Learn more

10-Day Weather Forecast

Advertisements
Track Severe Weather on mobile